Kashima Maru No,8 — 7JTF — position and weather

sailwx.info

Track history (hours):
 
Tides and Currents Weather Stations Pressure Air Temp Water Temp Dewpoint Dewpoint Depression Visibility Wind Speed Wind Dir Waves Ship Positions

Kashima Maru No,8

Last reported at 2017-Dec-15 00:09 UTC. Time now 2017-Dec-15 04:35 UTC.
Position N 33°19' E 131°60'.

Length 70 m; draft 4.5 m.

Type: Ship. MMSI: 431140000.

Date/timePositionNaut miles runAvg speedWind from/ knotsBaromVisibWave heightAir tempDewpointWater temp
2017-Dec-15 00:09N 33°19' E 131°60'6511.5
2017-Dec-14 18:30N 33°57' E 130°57'4 7.9
2017-Dec-14 18:00N 33°56' E 130°52'612.5
2017-Dec-14 17:30N 34°02' E 130°50'612.5
2017-Dec-14 17:00N 34°03' E 130°42'612.6
2017-Dec-14 16:30N 34°03' E 130°35'612.7
2017-Dec-14 16:00N 34°03' E 130°27'  
2017-Dec-12 07:25N 34°03' E 130°09'511.6
2017-Dec-12 07:00N 34°03' E 130°15'611.8
2017-Dec-12 06:30N 34°03' E 130°22'611.6
2017-Dec-12 06:00N 34°03' E 130°29'611.4
2017-Dec-12 05:29N 34°03' E 130°36'511.1
2017-Dec-12 05:00N 34°03' E 130°43'510.9
2017-Dec-12 04:30N 34°02' E 130°49'5 9.8
2017-Dec-12 04:00N 33°58' E 130°53'4 8.4
2017-Dec-12 03:31N 33°55' E 130°55'5 9.4
2017-Dec-12 03:00N 33°58' E 130°59'5 9.8
2017-Dec-12 02:30N 33°56' E 131°04'2 4.6
2017-Dec-12 02:00N 33°54' E 131°05'0 0.1
2017-Dec-12 01:30N 33°54' E 131°05'0 0.1
2017-Dec-12 01:00N 33°54' E 131°05'0 0.1
2017-Dec-12 00:30N 33°54' E 131°05'0 0.1
2017-Dec-12 00:00N 33°54' E 131°05'0 0.0
2017-Dec-11 23:30N 33°54' E 131°05'0 0.0
2017-Dec-11 23:00N 33°54' E 131°05'0 0.0
2017-Dec-11 22:30N 33°54' E 131°05'0 0.1
2017-Dec-11 22:00N 33°54' E 131°05'0 0.1
2017-Dec-11 21:30N 33°54' E 131°05'0 0.0
2017-Dec-11 21:00N 33°54' E 131°05'0 0.0
2017-Dec-11 20:30N 33°54' E 131°05'0 0.0
2017-Dec-11 20:00N 33°54' E 131°05'0 0.1
2017-Dec-11 19:30N 33°54' E 131°05'0 0.1
2017-Dec-11 19:00N 33°54' E 131°05'0 0.3
2017-Dec-11 18:31N 33°54' E 131°05'4 8.4
2017-Dec-11 18:00N 33°53' E 131°10'611.3
2017-Dec-11 17:30N 33°51' E 131°17'611.7
2017-Dec-11 17:00N 33°50' E 131°23'611.7
2017-Dec-11 16:30N 33°49' E 131°30'611.3
2017-Dec-11 16:00N 33°47' E 131°37'4710.4
2017-Dec-11 11:28N 33°51' E 132°34'612.5
2017-Dec-11 11:00N 33°55' E 132°39'9410.8
2017-Dec-11 02:18N 34°19' E 134°28'411.9
2017-Dec-11 02:00N 34°18' E 134°33'611.5
2017-Dec-11 01:29N 34°15' E 134°39'812.4
2017-Dec-11 00:52N 34°08' E 134°43'411.7
2017-Dec-11 00:30N 34°05' E 134°47'711.9
2017-Dec-10 23:56N 34°00' E 134°52'511.8
2017-Dec-10 23:30N 33°57' E 134°57'511.1
2017-Dec-10 23:00N 33°53' E 135°01'17810.7
2017-Dec-10 06:21N 34°34' E 138°30'411.2
2017-Dec-10 06:00N 34°34' E 138°35'911.6
2017-Dec-10 05:15N 34°35' E 138°45'311.7
2017-Dec-10 05:01N 34°35' E 138°49'611.2
2017-Dec-10 04:30N 34°36' E 138°55'611.8
2017-Dec-10 03:58N 34°40' E 139°01'712.6
2017-Dec-10 03:24N 34°46' E 139°06'1311.9
2017-Dec-10 02:20N 34°56' E 139°15'611.7
2017-Dec-10 01:52N 34°58' E 139°21'510.9
2017-Dec-10 01:26N 35°00' E 139°27'511.1
2017-Dec-10 00:58N 35°03' E 139°33'511.1
2017-Dec-10 00:31N 35°05' E 139°38'611.7
2017-Dec-10 00:01N 35°08' E 139°44'611.7
2017-Dec-09 23:30N 35°14' E 139°46'611.9
2017-Dec-09 23:00N 35°19' E 139°43'611.8
2017-Dec-09 22:31N 35°25' E 139°43'611.8
2017-Dec-09 22:00N 35°30' E 139°48'1 2.7
2017-Dec-09 21:30N 35°31' E 139°46'0 0.0
2017-Dec-09 21:00N 35°31' E 139°46'0 0.0
2017-Dec-09 20:30N 35°31' E 139°46'0 0.0
2017-Dec-09 19:54N 35°31' E 139°46'0 0.0
2017-Dec-09 19:27N 35°31' E 139°46'0 0.0
2017-Dec-09 18:54N 35°31' E 139°46'0 0.0
2017-Dec-09 18:27N 35°31' E 139°46'0 0.0
2017-Dec-09 18:00N 35°31' E 139°46'0 0.0
2017-Dec-09 17:30N 35°31' E 139°46'0 0.0
2017-Dec-09 17:00N 35°31' E 139°46'0 0.0
2017-Dec-09 16:30N 35°31' E 139°46'0 0.0
2017-Dec-09 16:00N 35°31' E 139°46'0 0.0
2017-Dec-09 15:30N 35°31' E 139°46'0 0.0
2017-Dec-09 15:00N 35°31' E 139°46'0 0.0
2017-Dec-09 14:30N 35°31' E 139°46'0 0.0
2017-Dec-09 14:00N 35°31' E 139°46'0 0.0
2017-Dec-09 13:30N 35°31' E 139°46'0 0.0
2017-Dec-09 12:57N 35°31' E 139°46'0 0.0
2017-Dec-09 12:27N 35°31' E 139°46'0 0.0
2017-Dec-09 11:57N 35°31' E 139°46'0 0.0
2017-Dec-09 11:30N 35°31' E 139°46'0 0.0
2017-Dec-09 11:00N 35°31' E 139°46'0 0.0
2017-Dec-09 10:30N 35°31' E 139°46'0 0.0
2017-Dec-09 09:57N 35°31' E 139°46'0 0.0
2017-Dec-09 09:30N 35°31' E 139°46'0 0.0
2017-Dec-09 09:00N 35°31' E 139°46'0 0.0
2017-Dec-09 08:30N 35°31' E 139°46'0 0.0
2017-Dec-09 08:00N 35°31' E 139°46'0 0.0
2017-Dec-09 07:24N 35°31' E 139°46'0 0.0
2017-Dec-09 06:57N 35°31' E 139°46'0 0.0
2017-Dec-09 06:30N 35°31' E 139°46'0 0.0
2017-Dec-09 06:00N 35°31' E 139°46'0 0.0
2017-Dec-09 05:21N 35°31' E 139°46'0 0.0
2017-Dec-09 04:57N 35°31' E 139°46'0 0.0
2017-Dec-09 04:30N 35°31' E 139°46'0 0.0
2017-Dec-09 04:00N 35°31' E 139°46'0 0.0
2017-Dec-09 03:27N 35°31' E 139°46'1 3.0
2017-Dec-09 03:00N 35°30' E 139°48'2 4.3
2017-Dec-09 02:29N 35°29' E 139°46'0 0.0
2017-Dec-09 01:59N 35°29' E 139°46'0 0.0
2017-Dec-09 01:29N 35°29' E 139°46'0 0.0
2017-Dec-09 00:59N 35°29' E 139°46'0 0.0
2017-Dec-09 00:26N 35°29' E 139°46'0 0.0
2017-Dec-08 23:59N 35°29' E 139°46'0 0.1
2017-Dec-08 23:29N 35°29' E 139°46'0 0.0
2017-Dec-08 22:59N 35°29' E 139°46'0 0.0
2017-Dec-08 22:29N 35°29' E 139°46'0 0.0
2017-Dec-08 21:59N 35°29' E 139°46'0 0.1
2017-Dec-08 21:29N 35°29' E 139°46'0 0.0
2017-Dec-08 20:56N 35°29' E 139°46'0 0.1
2017-Dec-08 20:29N 35°29' E 139°46'0 0.1
2017-Dec-08 19:53N 35°29' E 139°46'0 0.0
2017-Dec-08 19:29N 35°29' E 139°46'0 0.1
2017-Dec-08 18:59N 35°29' E 139°46'0 0.1
2017-Dec-08 18:26N 35°29' E 139°46'0 0.0
2017-Dec-08 17:59N 35°29' E 139°46'0 0.0
2017-Dec-08 17:29N 35°29' E 139°46'0 0.0
2017-Dec-08 16:59N 35°29' E 139°46'0 0.0
2017-Dec-08 16:29N 35°29' E 139°46'0 0.0
2017-Dec-08 15:59N 35°29' E 139°46'0 0.0
2017-Dec-08 15:29N 35°29' E 139°46'0 0.0
2017-Dec-08 14:56N 35°29' E 139°46'0 0.0
2017-Dec-08 14:29N 35°29' E 139°46'0 0.0
2017-Dec-08 13:59N 35°29' E 139°46'0 0.0
2017-Dec-08 13:29N 35°29' E 139°46'0 0.0
2017-Dec-08 12:59N 35°29' E 139°46'0 0.0
2017-Dec-08 12:29N 35°29' E 139°46'0 0.0
2017-Dec-08 11:59N 35°29' E 139°46'0 0.0
2017-Dec-08 11:26N 35°29' E 139°46'0 0.0
2017-Dec-08 10:56N 35°29' E 139°46'0 0.1
2017-Dec-08 10:29N 35°29' E 139°46'0 0.1
2017-Dec-08 09:59N 35°29' E 139°46'0 0.0
2017-Dec-08 09:29N 35°29' E 139°46'0 0.0
2017-Dec-08 08:59N 35°29' E 139°46'0 0.0
2017-Dec-08 08:29N 35°29' E 139°46'0 0.0
2017-Dec-08 07:59N 35°29' E 139°46'0 0.0
2017-Dec-08 07:29N 35°29' E 139°46'0 0.0
2017-Dec-08 06:59N 35°29' E 139°46'0 0.1
2017-Dec-08 06:29N 35°29' E 139°46'0 0.0
2017-Dec-08 05:59N 35°29' E 139°46'0 0.0
2017-Dec-08 05:29N 35°29' E 139°46'0 0.0
2017-Dec-08 04:59N 35°29' E 139°46'0 0.0
2017-Dec-08 04:29N 35°29' E 139°46'0 0.0
2017-Dec-08 03:59N 35°29' E 139°46'0 0.0
2017-Dec-08 03:29N 35°29' E 139°46'0 0.0
2017-Dec-08 02:59N 35°29' E 139°46'0 0.0
2017-Dec-08 02:29N 35°29' E 139°46'0 0.0
2017-Dec-08 01:59N 35°29' E 139°46'0 0.0
2017-Dec-08 01:29N 35°29' E 139°46'0 0.0
2017-Dec-08 00:59N 35°29' E 139°46'0 0.1
2017-Dec-08 00:29N 35°29' E 139°46'0 0.1
2017-Dec-07 23:56N 35°29' E 139°46'0 0.1
2017-Dec-07 23:29N 35°29' E 139°46'0 0.1
2017-Dec-07 22:59N 35°29' E 139°46'0 0.0
2017-Dec-07 22:29N 35°29' E 139°46'0 0.0
2017-Dec-07 22:00N 35°29' E 139°46'0 0.1
2017-Dec-07 21:30N 35°29' E 139°46'0 0.0
2017-Dec-07 21:01N 35°29' E 139°46'0 0.0
2017-Dec-07 20:30N 35°29' E 139°46'0 0.1
2017-Dec-07 20:00N 35°29' E 139°46'0 0.0
2017-Dec-07 19:30N 35°29' E 139°46'0 0.0
2017-Dec-07 19:01N 35°29' E 139°46'0 0.0
2017-Dec-07 18:30N 35°29' E 139°46'0 0.0
2017-Dec-07 18:00N 35°29' E 139°46'0 0.0
2017-Dec-07 17:31N 35°29' E 139°46'0 0.1
2017-Dec-07 17:00N 35°29' E 139°46'0 0.0
2017-Dec-07 16:30N 35°29' E 139°46'0 0.0
2017-Dec-07 16:00N 35°29' E 139°46'0 0.0
2017-Dec-07 15:30N 35°29' E 139°46'0 0.0
2017-Dec-07 15:01N 35°29' E 139°46'0 0.0
2017-Dec-07 14:31N 35°29' E 139°46'0 0.0
2017-Dec-07 14:01N 35°29' E 139°46'0 0.1
2017-Dec-07 13:30N 35°29' E 139°46'0 0.0
2017-Dec-07 13:00N 35°29' E 139°46'0 0.0
2017-Dec-07 12:30N 35°29' E 139°46'0 0.0
2017-Dec-07 12:01N 35°29' E 139°46'0 0.0
2017-Dec-07 11:30N 35°29' E 139°46'0 0.0
2017-Dec-07 11:00N 35°29' E 139°46'0 0.1
2017-Dec-07 10:30N 35°29' E 139°46'0 0.1
2017-Dec-07 10:00N 35°29' E 139°46'0 0.0
2017-Dec-07 09:30N 35°29' E 139°46'0 0.0
2017-Dec-07 09:01N 35°29' E 139°46'0 0.0
2017-Dec-07 08:30N 35°29' E 139°46'0 0.0
2017-Dec-07 08:00N 35°29' E 139°46'0 0.0
2017-Dec-07 07:30N 35°29' E 139°46'0 0.0
2017-Dec-07 07:00N 35°29' E 139°46'0 0.0
2017-Dec-07 06:30N 35°29' E 139°46'0 0.1
2017-Dec-07 06:01N 35°29' E 139°46'0 0.0
2017-Dec-07 05:30N 35°29' E 139°46'0 0.0
2017-Dec-07 05:01N 35°29' E 139°46'0 0.0
2017-Dec-07 04:31N 35°29' E 139°46'0 0.0
2017-Dec-07 04:00N 35°29' E 139°46'0 0.0
2017-Dec-07 03:31N 35°29' E 139°46'0 0.0
2017-Dec-07 03:00N 35°29' E 139°46'0 0.0
2017-Dec-07 02:31N 35°29' E 139°46'0 0.0
2017-Dec-07 02:00N 35°29' E 139°46'0 0.0
2017-Dec-07 01:30N 35°29' E 139°46'0 0.0
2017-Dec-07 01:00N 35°29' E 139°46'0 0.1
2017-Dec-07 00:30N 35°29' E 139°46'0 0.0
2017-Dec-07 00:00N 35°29' E 139°46'0 0.0
2017-Dec-06 23:30N 35°29' E 139°46'0 0.0
2017-Dec-06 23:00N 35°29' E 139°46'0 0.0
2017-Dec-06 22:31N 35°29' E 139°46'0 0.0
2017-Dec-06 22:00N 35°29' E 139°46'0 0.0
2017-Dec-06 21:30N 35°29' E 139°46'0 0.0
2017-Dec-06 21:00N 35°29' E 139°46'  
Track history (hours):
 
Tides and Currents Weather Stations Pressure Air Temp Water Temp Dewpoint Dewpoint Depression Visibility Wind Speed Wind Dir Waves Ship Positions

Kashima Maru No,8

Last reported at 2017-Dec-15 00:09 UTC. Time now 2017-Dec-15 04:35 UTC.
Position N 33°19' E 131°60'.

Length 70 m; draft 4.5 m.

Type: Ship. MMSI: 431140000.

Date/timePositionNaut miles runAvg speedWind from/ knotsBaromVisibWave heightAir tempDewpointWater temp
2017-Dec-15 00:09N 33°19' E 131°60'6511.5
2017-Dec-14 18:30N 33°57' E 130°57'4 7.9
2017-Dec-14 18:00N 33°56' E 130°52'612.5
2017-Dec-14 17:30N 34°02' E 130°50'612.5
2017-Dec-14 17:00N 34°03' E 130°42'612.6
2017-Dec-14 16:30N 34°03' E 130°35'612.7
2017-Dec-14 16:00N 34°03' E 130°27'  
2017-Dec-12 07:25N 34°03' E 130°09'511.6
2017-Dec-12 07:00N 34°03' E 130°15'611.8
2017-Dec-12 06:30N 34°03' E 130°22'611.6
2017-Dec-12 06:00N 34°03' E 130°29'611.4
2017-Dec-12 05:29N 34°03' E 130°36'511.1
2017-Dec-12 05:00N 34°03' E 130°43'510.9
2017-Dec-12 04:30N 34°02' E 130°49'5 9.8
2017-Dec-12 04:00N 33°58' E 130°53'4 8.4
2017-Dec-12 03:31N 33°55' E 130°55'5 9.4
2017-Dec-12 03:00N 33°58' E 130°59'5 9.8
2017-Dec-12 02:30N 33°56' E 131°04'2 4.6
2017-Dec-12 02:00N 33°54' E 131°05'0 0.1
2017-Dec-12 01:30N 33°54' E 131°05'0 0.1
2017-Dec-12 01:00N 33°54' E 131°05'0 0.1
2017-Dec-12 00:30N 33°54' E 131°05'0 0.1
2017-Dec-12 00:00N 33°54' E 131°05'0 0.0
2017-Dec-11 23:30N 33°54' E 131°05'0 0.0
2017-Dec-11 23:00N 33°54' E 131°05'0 0.0
2017-Dec-11 22:30N 33°54' E 131°05'0 0.1
2017-Dec-11 22:00N 33°54' E 131°05'0 0.1
2017-Dec-11 21:30N 33°54' E 131°05'0 0.0
2017-Dec-11 21:00N 33°54' E 131°05'0 0.0
2017-Dec-11 20:30N 33°54' E 131°05'0 0.0
2017-Dec-11 20:00N 33°54' E 131°05'0 0.1
2017-Dec-11 19:30N 33°54' E 131°05'0 0.1
2017-Dec-11 19:00N 33°54' E 131°05'0 0.3
2017-Dec-11 18:31N 33°54' E 131°05'4 8.4
2017-Dec-11 18:00N 33°53' E 131°10'611.3
2017-Dec-11 17:30N 33°51' E 131°17'611.7
2017-Dec-11 17:00N 33°50' E 131°23'611.7
2017-Dec-11 16:30N 33°49' E 131°30'611.3
2017-Dec-11 16:00N 33°47' E 131°37'4710.4
2017-Dec-11 11:28N 33°51' E 132°34'612.5
2017-Dec-11 11:00N 33°55' E 132°39'9410.8
2017-Dec-11 02:18N 34°19' E 134°28'411.9
2017-Dec-11 02:00N 34°18' E 134°33'611.5
2017-Dec-11 01:29N 34°15' E 134°39'812.4
2017-Dec-11 00:52N 34°08' E 134°43'411.7
2017-Dec-11 00:30N 34°05' E 134°47'711.9
2017-Dec-10 23:56N 34°00' E 134°52'511.8
2017-Dec-10 23:30N 33°57' E 134°57'511.1
2017-Dec-10 23:00N 33°53' E 135°01'17810.7
2017-Dec-10 06:21N 34°34' E 138°30'411.2
2017-Dec-10 06:00N 34°34' E 138°35'911.6
2017-Dec-10 05:15N 34°35' E 138°45'311.7
2017-Dec-10 05:01N 34°35' E 138°49'611.2
2017-Dec-10 04:30N 34°36' E 138°55'611.8
2017-Dec-10 03:58N 34°40' E 139°01'712.6
2017-Dec-10 03:24N 34°46' E 139°06'1311.9
2017-Dec-10 02:20N 34°56' E 139°15'611.7
2017-Dec-10 01:52N 34°58' E 139°21'510.9
2017-Dec-10 01:26N 35°00' E 139°27'511.1
2017-Dec-10 00:58N 35°03' E 139°33'511.1
2017-Dec-10 00:31N 35°05' E 139°38'611.7
2017-Dec-10 00:01N 35°08' E 139°44'611.7
2017-Dec-09 23:30N 35°14' E 139°46'611.9
2017-Dec-09 23:00N 35°19' E 139°43'611.8
2017-Dec-09 22:31N 35°25' E 139°43'611.8
2017-Dec-09 22:00N 35°30' E 139°48'1 2.7
2017-Dec-09 21:30N 35°31' E 139°46'0 0.0
2017-Dec-09 21:00N 35°31' E 139°46'0 0.0
2017-Dec-09 20:30N 35°31' E 139°46'0 0.0
2017-Dec-09 19:54N 35°31' E 139°46'0 0.0
2017-Dec-09 19:27N 35°31' E 139°46'0 0.0
2017-Dec-09 18:54N 35°31' E 139°46'0 0.0
2017-Dec-09 18:27N 35°31' E 139°46'0 0.0
2017-Dec-09 18:00N 35°31' E 139°46'0 0.0
2017-Dec-09 17:30N 35°31' E 139°46'0 0.0
2017-Dec-09 17:00N 35°31' E 139°46'0 0.0
2017-Dec-09 16:30N 35°31' E 139°46'0 0.0
2017-Dec-09 16:00N 35°31' E 139°46'0 0.0
2017-Dec-09 15:30N 35°31' E 139°46'0 0.0
2017-Dec-09 15:00N 35°31' E 139°46'0 0.0
2017-Dec-09 14:30N 35°31' E 139°46'0 0.0
2017-Dec-09 14:00N 35°31' E 139°46'0 0.0
2017-Dec-09 13:30N 35°31' E 139°46'0 0.0
2017-Dec-09 12:57N 35°31' E 139°46'0 0.0
2017-Dec-09 12:27N 35°31' E 139°46'0 0.0
2017-Dec-09 11:57N 35°31' E 139°46'0 0.0
2017-Dec-09 11:30N 35°31' E 139°46'0 0.0
2017-Dec-09 11:00N 35°31' E 139°46'0 0.0
2017-Dec-09 10:30N 35°31' E 139°46'0 0.0
2017-Dec-09 09:57N 35°31' E 139°46'0 0.0
2017-Dec-09 09:30N 35°31' E 139°46'0 0.0
2017-Dec-09 09:00N 35°31' E 139°46'0 0.0
2017-Dec-09 08:30N 35°31' E 139°46'0 0.0
2017-Dec-09 08:00N 35°31' E 139°46'0 0.0
2017-Dec-09 07:24N 35°31' E 139°46'0 0.0
2017-Dec-09 06:57N 35°31' E 139°46'0 0.0
2017-Dec-09 06:30N 35°31' E 139°46'0 0.0
2017-Dec-09 06:00N 35°31' E 139°46'0 0.0
2017-Dec-09 05:21N 35°31' E 139°46'0 0.0
2017-Dec-09 04:57N 35°31' E 139°46'0 0.0
2017-Dec-09 04:30N 35°31' E 139°46'0 0.0
2017-Dec-09 04:00N 35°31' E 139°46'0 0.0
2017-Dec-09 03:27N 35°31' E 139°46'1 3.0
2017-Dec-09 03:00N 35°30' E 139°48'2 4.3
2017-Dec-09 02:29N 35°29' E 139°46'0 0.0
2017-Dec-09 01:59N 35°29' E 139°46'0 0.0
2017-Dec-09 01:29N 35°29' E 139°46'0 0.0
2017-Dec-09 00:59N 35°29' E 139°46'0 0.0
2017-Dec-09 00:26N 35°29' E 139°46'0 0.0
2017-Dec-08 23:59N 35°29' E 139°46'0 0.1
2017-Dec-08 23:29N 35°29' E 139°46'0 0.0
2017-Dec-08 22:59N 35°29' E 139°46'0 0.0
2017-Dec-08 22:29N 35°29' E 139°46'0 0.0
2017-Dec-08 21:59N 35°29' E 139°46'0 0.1
2017-Dec-08 21:29N 35°29' E 139°46'0 0.0
2017-Dec-08 20:56N 35°29' E 139°46'0 0.1
2017-Dec-08 20:29N 35°29' E 139°46'0 0.1
2017-Dec-08 19:53N 35°29' E 139°46'0 0.0
2017-Dec-08 19:29N 35°29' E 139°46'0 0.1
2017-Dec-08 18:59N 35°29' E 139°46'0 0.1
2017-Dec-08 18:26N 35°29' E 139°46'0 0.0
2017-Dec-08 17:59N 35°29' E 139°46'0 0.0
2017-Dec-08 17:29N 35°29' E 139°46'0 0.0
2017-Dec-08 16:59N 35°29' E 139°46'0 0.0
2017-Dec-08 16:29N 35°29' E 139°46'0 0.0
2017-Dec-08 15:59N 35°29' E 139°46'0 0.0
2017-Dec-08 15:29N 35°29' E 139°46'0 0.0
2017-Dec-08 14:56N 35°29' E 139°46'0 0.0
2017-Dec-08 14:29N 35°29' E 139°46'0 0.0
2017-Dec-08 13:59N 35°29' E 139°46'0 0.0
2017-Dec-08 13:29N 35°29' E 139°46'0 0.0
2017-Dec-08 12:59N 35°29' E 139°46'0 0.0
2017-Dec-08 12:29N 35°29' E 139°46'0 0.0
2017-Dec-08 11:59N 35°29' E 139°46'0 0.0
2017-Dec-08 11:26N 35°29' E 139°46'0 0.0
2017-Dec-08 10:56N 35°29' E 139°46'0 0.1
2017-Dec-08 10:29N 35°29' E 139°46'0 0.1
2017-Dec-08 09:59N 35°29' E 139°46'0 0.0
2017-Dec-08 09:29N 35°29' E 139°46'0 0.0
2017-Dec-08 08:59N 35°29' E 139°46'0 0.0
2017-Dec-08 08:29N 35°29' E 139°46'0 0.0
2017-Dec-08 07:59N 35°29' E 139°46'0 0.0
2017-Dec-08 07:29N 35°29' E 139°46'0 0.0
2017-Dec-08 06:59N 35°29' E 139°46'0 0.1
2017-Dec-08 06:29N 35°29' E 139°46'0 0.0
2017-Dec-08 05:59N 35°29' E 139°46'0 0.0
2017-Dec-08 05:29N 35°29' E 139°46'0 0.0
2017-Dec-08 04:59N 35°29' E 139°46'0 0.0
2017-Dec-08 04:29N 35°29' E 139°46'0 0.0
2017-Dec-08 03:59N 35°29' E 139°46'0 0.0
2017-Dec-08 03:29N 35°29' E 139°46'0 0.0
2017-Dec-08 02:59N 35°29' E 139°46'0 0.0
2017-Dec-08 02:29N 35°29' E 139°46'0 0.0
2017-Dec-08 01:59N 35°29' E 139°46'0 0.0
2017-Dec-08 01:29N 35°29' E 139°46'0 0.0
2017-Dec-08 00:59N 35°29' E 139°46'0 0.1
2017-Dec-08 00:29N 35°29' E 139°46'0 0.1
2017-Dec-07 23:56N 35°29' E 139°46'0 0.1
2017-Dec-07 23:29N 35°29' E 139°46'0 0.1
2017-Dec-07 22:59N 35°29' E 139°46'0 0.0
2017-Dec-07 22:29N 35°29' E 139°46'0 0.0
2017-Dec-07 22:00N 35°29' E 139°46'0 0.1
2017-Dec-07 21:30N 35°29' E 139°46'0 0.0
2017-Dec-07 21:01N 35°29' E 139°46'0 0.0
2017-Dec-07 20:30N 35°29' E 139°46'0 0.1
2017-Dec-07 20:00N 35°29' E 139°46'0 0.0
2017-Dec-07 19:30N 35°29' E 139°46'0 0.0
2017-Dec-07 19:01N 35°29' E 139°46'0 0.0
2017-Dec-07 18:30N 35°29' E 139°46'0 0.0
2017-Dec-07 18:00N 35°29' E 139°46'0 0.0
2017-Dec-07 17:31N 35°29' E 139°46'0 0.1
2017-Dec-07 17:00N 35°29' E 139°46'0 0.0
2017-Dec-07 16:30N 35°29' E 139°46'0 0.0
2017-Dec-07 16:00N 35°29' E 139°46'0 0.0
2017-Dec-07 15:30N 35°29' E 139°46'0 0.0
2017-Dec-07 15:01N 35°29' E 139°46'0 0.0
2017-Dec-07 14:31N 35°29' E 139°46'0 0.0
2017-Dec-07 14:01N 35°29' E 139°46'0 0.1
2017-Dec-07 13:30N 35°29' E 139°46'0 0.0
2017-Dec-07 13:00N 35°29' E 139°46'0 0.0
2017-Dec-07 12:30N 35°29' E 139°46'0 0.0
2017-Dec-07 12:01N 35°29' E 139°46'0 0.0
2017-Dec-07 11:30N 35°29' E 139°46'0 0.0
2017-Dec-07 11:00N 35°29' E 139°46'0 0.1
2017-Dec-07 10:30N 35°29' E 139°46'0 0.1
2017-Dec-07 10:00N 35°29' E 139°46'0 0.0
2017-Dec-07 09:30N 35°29' E 139°46'0 0.0
2017-Dec-07 09:01N 35°29' E 139°46'0 0.0
2017-Dec-07 08:30N 35°29' E 139°46'0 0.0
2017-Dec-07 08:00N 35°29' E 139°46'0 0.0
2017-Dec-07 07:30N 35°29' E 139°46'0 0.0
2017-Dec-07 07:00N 35°29' E 139°46'0 0.0
2017-Dec-07 06:30N 35°29' E 139°46'0 0.1
2017-Dec-07 06:01N 35°29' E 139°46'0 0.0
2017-Dec-07 05:30N 35°29' E 139°46'0 0.0
2017-Dec-07 05:01N 35°29' E 139°46'0 0.0
2017-Dec-07 04:31N 35°29' E 139°46'0 0.0
2017-Dec-07 04:00N 35°29' E 139°46'0 0.0
2017-Dec-07 03:31N 35°29' E 139°46'0 0.0
2017-Dec-07 03:00N 35°29' E 139°46'0 0.0
2017-Dec-07 02:31N 35°29' E 139°46'0 0.0
2017-Dec-07 02:00N 35°29' E 139°46'0 0.0
2017-Dec-07 01:30N 35°29' E 139°46'0 0.0
2017-Dec-07 01:00N 35°29' E 139°46'0 0.1
2017-Dec-07 00:30N 35°29' E 139°46'0 0.0
2017-Dec-07 00:00N 35°29' E 139°46'0 0.0
2017-Dec-06 23:30N 35°29' E 139°46'0 0.0
2017-Dec-06 23:00N 35°29' E 139°46'0 0.0
2017-Dec-06 22:31N 35°29' E 139°46'0 0.0
2017-Dec-06 22:00N 35°29' E 139°46'0 0.0
2017-Dec-06 21:30N 35°29' E 139°46'0 0.0
2017-Dec-06 21:00N 35°29' E 139°46'  

Dump ship's entire track history